createdAt,value
2023-02-11T00:01:33.027Z,41.50
2023-02-11T00:04:02.464Z,42.80
2023-02-11T00:06:32.836Z,40.60
2023-02-11T00:09:01.314Z,35.40
2023-02-11T00:11:30.798Z,37.80
2023-02-11T00:14:08.099Z,39.60
2023-02-11T00:16:36.536Z,38.20
2023-02-11T00:19:06.616Z,42.60
2023-02-11T00:21:35.103Z,33.30
2023-02-11T00:24:03.682Z,32.20
2023-02-11T00:26:34.490Z,36.20
2023-02-11T00:29:03.022Z,32.90
2023-02-11T00:31:33.318Z,32.40
2023-02-11T00:34:02.122Z,33.80
2023-02-11T00:36:31.106Z,35.00
2023-02-11T00:39:00.150Z,35.00
2023-02-11T00:41:29.830Z,35.50
2023-02-11T00:44:01.882Z,36.50
2023-02-11T00:46:30.528Z,40.40
2023-02-11T00:48:58.775Z,34.60
2023-02-11T00:51:28.502Z,34.00
2023-02-11T00:53:57.952Z,33.60
2023-02-11T00:56:26.102Z,34.50
2023-02-11T00:58:54.359Z,32.80
2023-02-11T01:01:22.579Z,33.30
2023-02-11T01:03:51.423Z,32.80
2023-02-11T01:06:19.996Z,39.50
2023-02-11T01:08:48.086Z,30.70
2023-02-11T01:11:20.058Z,30.90
2023-02-11T01:13:49.647Z,34.30
2023-02-11T01:16:19.463Z,29.40
2023-02-11T01:18:48.124Z,34.20
2023-02-11T01:21:19.310Z,30.50
2023-02-11T01:23:47.697Z,30.40
2023-02-11T01:26:16.109Z,29.90
2023-02-11T01:28:44.503Z,29.70
2023-02-11T01:31:12.823Z,30.80
2023-02-11T01:33:41.235Z,31.10
2023-02-11T01:36:11.027Z,29.80
2023-02-11T01:38:41.228Z,31.90
2023-02-11T01:41:12.314Z,31.80
2023-02-11T01:43:46.318Z,26.80
2023-02-11T01:46:36.898Z,29.60
2023-02-11T01:49:10.180Z,32.50
2023-02-11T01:51:52.105Z,29.40
2023-02-11T01:54:43.313Z,29.70
2023-02-11T01:57:27.745Z,28.50
2023-02-11T02:00:08.110Z,33.20
2023-02-11T02:02:47.767Z,24.80
2023-02-11T02:05:26.360Z,30.80
2023-02-11T02:08:02.828Z,30.30
2023-02-11T02:10:31.923Z,31.10
2023-02-11T02:12:59.906Z,29.50
2023-02-11T02:15:32.366Z,28.40
2023-02-11T02:18:41.784Z,27.90
2023-02-11T02:21:41.697Z,25.10
2023-02-11T02:24:15.816Z,27.90
2023-02-11T02:27:02.778Z,29.30
2023-02-11T02:30:03.440Z,26.40
2023-02-11T02:33:21.623Z,26.70
2023-02-11T02:36:19.692Z,24.60
2023-02-11T02:38:57.333Z,27.90
2023-02-11T02:41:30.704Z,27.40
2023-02-11T02:43:59.195Z,24.60
2023-02-11T02:46:34.656Z,29.30
2023-02-11T02:49:03.945Z,26.20
2023-02-11T02:52:09.299Z,30.10
2023-02-11T02:55:01.594Z,25.00
2023-02-11T02:57:35.908Z,26.90
2023-02-11T03:00:09.920Z,21.80
2023-02-11T03:03:05.844Z,25.00
2023-02-11T03:05:55.399Z,24.70
2023-02-11T03:08:47.363Z,26.20
2023-02-11T03:11:19.011Z,21.80
2023-02-11T03:13:49.718Z,26.00
2023-02-11T03:16:23.413Z,26.90
2023-02-11T03:19:08.810Z,24.20
2023-02-11T03:21:40.245Z,24.30
2023-02-11T03:24:14.674Z,23.20
2023-02-11T03:26:52.981Z,25.50
2023-02-11T03:29:40.804Z,24.80
2023-02-11T03:32:44.186Z,25.80
2023-02-11T03:35:12.372Z,22.10
2023-02-11T03:37:52.114Z,25.30
2023-02-11T03:40:26.943Z,21.50
2023-02-11T03:43:01.136Z,25.60
2023-02-11T03:45:30.644Z,23.70
2023-02-11T03:48:16.336Z,22.60
2023-02-11T03:50:47.491Z,24.30
2023-02-11T03:53:16.482Z,22.40
2023-02-11T03:55:48.300Z,27.80
2023-02-11T03:58:17.033Z,22.30
2023-02-11T04:00:45.633Z,26.00
2023-02-11T04:03:14.290Z,24.70
2023-02-11T04:05:42.695Z,25.70
2023-02-11T04:08:11.075Z,21.80
2023-02-11T04:10:39.261Z,22.70
2023-02-11T04:13:07.349Z,24.60
2023-02-11T04:15:35.523Z,30.70
2023-02-11T04:18:05.131Z,24.20
2023-02-11T04:20:33.221Z,27.70
2023-02-11T04:23:01.151Z,25.60
2023-02-11T04:25:29.356Z,25.70
2023-02-11T04:27:57.681Z,28.80
2023-02-11T04:30:25.914Z,26.00
2023-02-11T04:32:54.706Z,26.70
2023-02-11T04:35:23.101Z,28.40
2023-02-11T04:37:51.264Z,27.30
2023-02-11T04:40:19.342Z,27.20
2023-02-11T04:42:47.520Z,27.20
2023-02-11T04:45:15.593Z,24.80
2023-02-11T04:47:43.682Z,28.00
2023-02-11T04:50:11.909Z,27.30
2023-02-11T04:52:40.136Z,25.10
2023-02-11T04:55:08.524Z,20.60
2023-02-11T04:57:36.735Z,23.10
2023-02-11T05:00:07.057Z,25.10
2023-02-11T05:02:34.996Z,21.10
2023-02-11T05:05:03.789Z,25.30
2023-02-11T05:07:32.126Z,24.80
2023-02-11T05:10:00.184Z,23.50
2023-02-11T05:12:28.429Z,24.10
2023-02-11T05:14:56.605Z,21.90
2023-02-11T05:17:24.580Z,21.70
2023-02-11T05:19:52.543Z,23.60
2023-02-11T05:22:22.180Z,27.20
2023-02-11T05:24:50.296Z,25.40
2023-02-11T05:27:18.297Z,23.00
2023-02-11T05:29:46.468Z,23.90
2023-02-11T05:32:14.537Z,22.80
2023-02-11T05:34:42.746Z,19.60
2023-02-11T05:37:10.846Z,22.90
2023-02-11T05:39:39.103Z,21.20
2023-02-11T05:42:07.293Z,23.30
2023-02-11T05:44:35.559Z,20.80
2023-02-11T05:47:03.835Z,22.10
2023-02-11T05:49:32.227Z,23.90
2023-02-11T05:52:00.287Z,26.40
2023-02-11T05:54:28.371Z,22.10
2023-02-11T05:56:56.659Z,24.20
2023-02-11T05:59:24.837Z,24.80
2023-02-11T06:01:52.845Z,26.20
2023-02-11T06:04:20.989Z,20.80
2023-02-11T06:06:49.056Z,23.50
2023-02-11T06:09:17.048Z,23.70
2023-02-11T06:11:45.345Z,21.20
2023-02-11T06:14:14.414Z,24.10
2023-02-11T06:16:42.692Z,22.20
2023-02-11T06:19:11.691Z,23.70
2023-02-11T06:21:44.102Z,24.20
2023-02-11T06:24:13.272Z,21.20
2023-02-11T06:26:41.352Z,22.20
2023-02-11T06:29:09.525Z,23.70
2023-02-11T06:31:39.399Z,23.10
2023-02-11T06:34:10.486Z,23.30
2023-02-11T06:36:41.187Z,22.80
2023-02-11T06:39:13.604Z,25.60
2023-02-11T06:41:41.699Z,24.90
2023-02-11T06:44:10.062Z,27.80
2023-02-11T06:46:38.157Z,26.00
2023-02-11T06:49:06.513Z,25.50
2023-02-11T06:51:34.705Z,28.70
2023-02-11T06:54:04.922Z,28.60
2023-02-11T06:56:33.716Z,28.00
2023-02-11T06:59:02.093Z,26.40
2023-02-11T07:01:30.083Z,27.30
2023-02-11T07:03:58.550Z,27.20
2023-02-11T07:06:28.224Z,24.70
2023-02-11T07:08:56.955Z,27.80
2023-02-11T07:11:28.346Z,27.10
2023-02-11T07:14:01.913Z,26.50
2023-02-11T07:16:30.479Z,27.00
2023-02-11T07:18:58.887Z,21.20
2023-02-11T07:21:27.482Z,22.50
2023-02-11T07:23:55.655Z,23.90
2023-02-11T07:26:25.880Z,24.50
2023-02-11T07:28:55.593Z,24.30
2023-02-11T07:31:28.068Z,23.80
2023-02-11T07:34:00.026Z,26.50
2023-02-11T07:36:32.112Z,28.20
2023-02-11T07:39:00.472Z,27.40
2023-02-11T07:41:28.862Z,27.30
2023-02-11T07:43:57.041Z,26.50
2023-02-11T07:46:28.018Z,28.90
2023-02-11T07:48:56.590Z,28.00
2023-02-11T07:51:30.439Z,22.80
2023-02-11T07:54:00.156Z,27.00
2023-02-11T07:56:29.070Z,29.20
2023-02-11T07:59:00.996Z,24.00
2023-02-11T08:01:30.358Z,26.30
2023-02-11T08:04:00.212Z,25.20
2023-02-11T08:06:31.881Z,26.70
2023-02-11T08:09:05.680Z,26.20
2023-02-11T08:11:33.917Z,24.10
2023-02-11T08:14:02.193Z,23.70
2023-02-11T08:16:33.386Z,24.50
2023-02-11T08:19:04.699Z,22.80
2023-02-11T08:21:32.833Z,23.00
2023-02-11T08:24:03.498Z,25.00
2023-02-11T08:26:34.754Z,21.20
2023-02-11T08:29:10.405Z,22.70
2023-02-11T08:31:41.358Z,23.40
2023-02-11T08:34:11.621Z,21.90
2023-02-11T08:36:42.035Z,23.70
2023-02-11T08:39:20.043Z,26.20
2023-02-11T08:41:51.686Z,22.00
2023-02-11T08:44:21.172Z,24.90
2023-02-11T08:46:50.678Z,27.80
2023-02-11T08:49:19.254Z,24.80
2023-02-11T08:51:47.720Z,25.80
2023-02-11T08:54:16.564Z,25.50
2023-02-11T08:56:44.724Z,26.30
2023-02-11T08:59:15.134Z,25.30
2023-02-11T09:01:44.654Z,23.70
2023-02-11T09:04:13.612Z,27.80
2023-02-11T09:06:42.056Z,25.60
2023-02-11T09:09:13.764Z,25.70
2023-02-11T09:11:44.144Z,24.60
2023-02-11T09:14:21.982Z,28.10
2023-02-11T09:16:51.650Z,29.60
2023-02-11T09:19:21.035Z,26.30
2023-02-11T09:21:49.215Z,26.50
2023-02-11T09:24:17.396Z,26.10
2023-02-11T09:26:45.494Z,37.30
2023-02-11T09:29:13.757Z,37.20
2023-02-11T09:31:41.968Z,36.50
2023-02-11T09:34:12.062Z,35.60
2023-02-11T09:36:41.621Z,34.20
2023-02-11T09:39:14.646Z,34.10
2023-02-11T09:42:08.928Z,32.20
2023-02-11T09:44:38.105Z,31.30
2023-02-11T09:47:18.069Z,36.70
2023-02-11T09:49:50.348Z,33.00
2023-02-11T09:52:45.246Z,33.00
2023-02-11T09:55:45.543Z,28.70
2023-02-11T09:58:22.966Z,32.00
2023-02-11T10:01:22.471Z,31.70
2023-02-11T10:04:19.355Z,33.40
2023-02-11T10:06:54.927Z,31.40
2023-02-11T10:09:42.637Z,31.60
2023-02-11T10:12:32.620Z,33.00
2023-02-11T10:15:17.983Z,33.70
2023-02-11T10:17:48.808Z,29.60
2023-02-11T10:20:35.633Z,30.10
2023-02-11T10:23:15.892Z,29.80
2023-02-11T10:25:47.133Z,30.80
2023-02-11T10:28:21.754Z,31.50
2023-02-11T10:31:10.256Z,28.20
2023-02-11T10:33:50.955Z,30.40
2023-02-11T10:36:21.224Z,30.50
2023-02-11T10:38:49.562Z,32.40
2023-02-11T10:41:22.980Z,32.30
2023-02-11T10:43:52.064Z,34.40
2023-02-11T10:46:27.028Z,30.80
2023-02-11T10:48:55.177Z,32.20
2023-02-11T10:51:28.587Z,31.10
2023-02-11T10:54:06.369Z,32.70
2023-02-11T10:56:37.622Z,34.20
2023-02-11T10:59:15.517Z,34.70
2023-02-11T11:01:54.393Z,42.70
2023-02-11T11:04:33.847Z,38.10
2023-02-11T11:07:23.958Z,35.80
2023-02-11T11:10:27.459Z,37.40
2023-02-11T11:12:55.634Z,37.60
2023-02-11T11:15:27.470Z,40.30
2023-02-11T11:18:21.393Z,37.90
2023-02-11T11:21:24.622Z,39.40
2023-02-11T11:23:54.950Z,36.80
2023-02-11T11:26:26.033Z,40.90
2023-02-11T11:29:08.189Z,37.30
2023-02-11T11:32:04.742Z,38.10
2023-02-11T11:34:37.283Z,38.40
2023-02-11T11:37:19.514Z,37.10
2023-02-11T11:39:58.516Z,39.30
2023-02-11T11:42:26.906Z,43.80
2023-02-11T11:45:20.148Z,42.20
2023-02-11T11:47:56.195Z,41.80
2023-02-11T11:50:45.156Z,41.40
2023-02-11T11:53:37.483Z,42.40
2023-02-11T11:56:09.983Z,46.20
2023-02-11T11:58:38.418Z,42.30
2023-02-11T12:01:21.254Z,42.70
2023-02-11T12:04:26.893Z,41.50
2023-02-11T12:07:25.950Z,48.00
2023-02-11T12:09:54.455Z,52.10
2023-02-11T12:12:34.504Z,44.20
2023-02-11T12:15:05.549Z,46.40
2023-02-11T12:18:11.081Z,46.60
2023-02-11T12:20:50.610Z,46.20
2023-02-11T12:23:38.764Z,46.00
2023-02-11T12:26:18.530Z,41.80
2023-02-11T12:29:24.901Z,43.70
2023-02-11T12:32:04.658Z,48.00
2023-02-11T12:35:07.152Z,44.40
2023-02-11T12:37:49.146Z,42.70
2023-02-11T12:40:22.036Z,43.60
2023-02-11T12:43:22.000Z,42.70
2023-02-11T12:46:28.701Z,46.60
2023-02-11T12:49:12.126Z,42.70
2023-02-11T12:52:03.737Z,43.60
2023-02-11T12:54:58.726Z,45.40
2023-02-11T12:57:31.196Z,41.00
2023-02-11T13:00:40.722Z,41.20
2023-02-11T13:03:19.835Z,42.40
2023-02-11T13:05:58.795Z,41.20
2023-02-11T13:08:42.613Z,44.90
2023-02-11T13:11:16.372Z,38.90
2023-02-11T13:13:50.216Z,44.60
2023-02-11T13:16:35.853Z,40.60
2023-02-11T13:19:14.061Z,38.30
2023-02-11T13:22:01.120Z,38.10
2023-02-11T13:24:51.399Z,38.90
2023-02-11T13:27:41.062Z,42.90
2023-02-11T13:30:29.573Z,40.30
2023-02-11T13:32:57.688Z,37.00
2023-02-11T13:35:40.362Z,42.50
2023-02-11T13:38:18.905Z,37.00
2023-02-11T13:41:04.691Z,39.10
2023-02-11T13:43:35.734Z,34.30
2023-02-11T13:46:06.802Z,33.40
2023-02-11T13:48:50.126Z,34.30
2023-02-11T13:51:34.645Z,33.90
2023-02-11T13:54:04.494Z,34.60
2023-02-11T13:56:37.042Z,34.50
2023-02-11T13:59:27.548Z,37.30
2023-02-11T14:02:36.283Z,33.90
2023-02-11T14:05:22.877Z,35.70
2023-02-11T14:08:42.077Z,38.50
2023-02-11T14:11:29.999Z,38.30
2023-02-11T14:14:25.618Z,32.60
2023-02-11T14:17:00.349Z,37.40
2023-02-11T14:19:34.821Z,36.90
2023-02-11T14:22:04.679Z,42.90
2023-02-11T14:24:32.752Z,41.40
2023-02-11T14:27:56.916Z,40.30
2023-02-11T14:30:46.690Z,34.70
2023-02-11T14:33:21.102Z,37.10
2023-02-11T14:36:05.963Z,40.50
2023-02-11T14:38:49.455Z,37.60
2023-02-11T14:41:26.877Z,36.50
2023-02-11T14:43:59.831Z,38.40
2023-02-11T14:46:30.444Z,43.30
2023-02-11T14:49:01.846Z,39.00
2023-02-11T14:51:40.350Z,36.90
2023-02-11T14:54:24.080Z,36.20
2023-02-11T14:57:17.425Z,40.20
2023-02-11T15:00:04.434Z,37.60
2023-02-11T15:02:35.835Z,39.70
2023-02-11T15:05:23.839Z,42.00
2023-02-11T15:07:55.088Z,41.40
2023-02-11T15:10:31.863Z,39.60
2023-02-11T15:13:01.492Z,42.10
2023-02-11T15:15:31.009Z,40.60
2023-02-11T15:18:02.771Z,39.30
2023-02-11T15:20:33.780Z,39.70
2023-02-11T15:23:05.056Z,39.90
2023-02-11T15:25:34.347Z,40.70
2023-02-11T15:28:21.235Z,37.80
2023-02-11T15:31:01.046Z,41.20
2023-02-11T15:33:32.958Z,40.80
2023-02-11T15:36:02.747Z,39.70
2023-02-11T15:38:31.362Z,40.30
2023-02-11T15:41:02.474Z,38.90
2023-02-11T15:43:54.210Z,45.20
2023-02-11T15:46:23.672Z,42.40
2023-02-11T15:48:55.686Z,38.80
2023-02-11T15:51:36.550Z,39.30
2023-02-11T15:54:24.091Z,43.20
2023-02-11T15:56:55.458Z,39.70
2023-02-11T15:59:32.302Z,42.40
2023-02-11T16:02:29.241Z,39.10
2023-02-11T16:05:00.181Z,37.60
2023-02-11T16:07:50.054Z,37.40
2023-02-11T16:10:23.155Z,40.60
2023-02-11T16:13:06.304Z,39.30
2023-02-11T16:15:34.458Z,36.80
2023-02-11T16:18:12.709Z,36.70
2023-02-11T16:20:41.342Z,39.20
2023-02-11T16:23:23.535Z,41.60
2023-02-11T16:26:00.004Z,39.50
2023-02-11T16:28:29.427Z,40.00
2023-02-11T16:30:59.784Z,39.40
2023-02-11T16:33:29.965Z,37.50
2023-02-11T16:36:02.135Z,42.30
2023-02-11T16:38:32.279Z,38.80
2023-02-11T16:41:00.335Z,42.30
2023-02-11T16:43:28.339Z,42.10
2023-02-11T16:45:58.744Z,41.30
2023-02-11T16:48:26.855Z,41.30
2023-02-11T16:50:55.451Z,38.60
2023-02-11T16:53:25.436Z,41.60
2023-02-11T16:55:54.237Z,38.80
2023-02-11T16:58:22.398Z,41.90
2023-02-11T17:00:51.517Z,42.90
2023-02-11T17:03:23.038Z,38.20
2023-02-11T17:05:55.686Z,42.30
2023-02-11T17:08:24.212Z,39.80
2023-02-11T17:10:52.893Z,40.00
2023-02-11T17:13:21.289Z,38.50
2023-02-11T17:15:49.713Z,40.30
2023-02-11T17:18:18.058Z,36.40
2023-02-11T17:20:46.130Z,41.60
2023-02-11T17:23:14.413Z,42.00
2023-02-11T17:25:42.691Z,43.00
2023-02-11T17:28:12.279Z,42.60
2023-02-11T17:30:43.542Z,47.20
2023-02-11T17:33:11.620Z,40.00
2023-02-11T17:35:41.067Z,41.70
2023-02-11T17:38:09.210Z,42.30
2023-02-11T17:40:37.388Z,42.10
2023-02-11T17:43:05.356Z,40.40
2023-02-11T17:45:33.558Z,46.90
2023-02-11T17:48:02.336Z,44.40
2023-02-11T17:50:30.304Z,39.60
2023-02-11T17:52:58.489Z,40.80
2023-02-11T17:55:26.572Z,42.70
2023-02-11T17:57:55.670Z,39.70
2023-02-11T18:00:24.145Z,40.50
2023-02-11T18:02:52.083Z,43.70
2023-02-11T18:05:20.845Z,42.60
2023-02-11T18:07:49.098Z,40.80
2023-02-11T18:10:17.535Z,43.80
2023-02-11T18:12:45.749Z,45.40
2023-02-11T18:15:16.891Z,38.60
2023-02-11T18:17:45.090Z,46.20
2023-02-11T18:20:13.360Z,52.10
2023-02-11T18:22:42.174Z,58.00
2023-02-11T18:25:14.724Z,58.40
2023-02-11T18:27:43.389Z,60.60
2023-02-11T18:30:16.549Z,60.70
2023-02-11T18:32:44.708Z,62.60
2023-02-11T18:35:15.121Z,56.40
2023-02-11T18:37:43.301Z,56.40
2023-02-11T18:40:13.852Z,60.70
2023-02-11T18:42:42.942Z,52.40
2023-02-11T18:45:15.056Z,58.30
2023-02-11T18:47:43.181Z,58.10
2023-02-11T18:50:13.823Z,51.40
2023-02-11T18:52:42.398Z,58.00
2023-02-11T18:55:10.908Z,55.70
2023-02-11T18:57:38.926Z,53.00
2023-02-11T19:00:10.119Z,56.00
2023-02-11T19:02:38.411Z,60.20
2023-02-11T19:05:07.152Z,53.70
2023-02-11T19:07:35.351Z,54.50
2023-02-11T19:10:05.097Z,61.10
2023-02-11T19:12:33.357Z,58.20
2023-02-11T19:15:01.336Z,56.30
2023-02-11T19:17:29.312Z,61.80
2023-02-11T19:19:57.388Z,60.90
2023-02-11T19:22:25.444Z,65.10
2023-02-11T19:24:53.429Z,58.60
2023-02-11T19:27:21.524Z,55.30
2023-02-11T19:29:49.475Z,56.30
2023-02-11T19:32:17.778Z,60.60
2023-02-11T19:34:45.712Z,58.40
2023-02-11T19:37:13.916Z,64.10
2023-02-11T19:39:43.020Z,59.40
2023-02-11T19:42:12.317Z,58.90
2023-02-11T19:44:40.603Z,60.50
2023-02-11T19:47:10.450Z,57.10
2023-02-11T19:49:38.498Z,60.00
2023-02-11T19:52:06.571Z,59.50
2023-02-11T19:54:34.711Z,64.20
2023-02-11T19:57:03.040Z,59.80
2023-02-11T19:59:31.102Z,55.80
2023-02-11T20:02:01.866Z,64.00
2023-02-11T20:04:32.286Z,57.10
2023-02-11T20:07:00.456Z,62.30
2023-02-11T20:09:29.141Z,57.40
2023-02-11T20:11:57.521Z,59.00
2023-02-11T20:14:27.903Z,64.70
2023-02-11T20:16:56.340Z,66.50
2023-02-11T20:19:24.509Z,66.10
2023-02-11T20:21:56.083Z,68.00
2023-02-11T20:24:25.626Z,68.00
2023-02-11T20:26:56.733Z,68.50
2023-02-11T20:29:25.894Z,73.90
2023-02-11T20:31:54.514Z,71.60
2023-02-11T20:34:25.158Z,76.40
2023-02-11T20:36:54.290Z,80.30
2023-02-11T20:39:24.409Z,71.80
2023-02-11T20:41:53.931Z,72.20
2023-02-11T20:44:23.199Z,81.10
2023-02-11T20:46:54.491Z,81.10
2023-02-11T20:49:24.655Z,79.60
2023-02-11T20:51:53.944Z,78.10
2023-02-11T20:54:24.393Z,74.20
2023-02-11T20:56:54.033Z,80.80
2023-02-11T20:59:24.736Z,73.80
2023-02-11T21:01:55.687Z,77.30
2023-02-11T21:04:27.784Z,73.50
2023-02-11T21:06:59.254Z,77.50
2023-02-11T21:09:30.963Z,75.20
2023-02-11T21:11:59.540Z,76.70
2023-02-11T21:14:28.648Z,71.90
2023-02-11T21:16:57.850Z,75.40
2023-02-11T21:19:25.938Z,72.90
2023-02-11T21:21:55.263Z,71.10
2023-02-11T21:24:23.926Z,71.30
2023-02-11T21:26:51.946Z,73.90
2023-02-11T21:29:20.293Z,73.80
2023-02-11T21:31:48.989Z,69.70
2023-02-11T21:34:17.363Z,77.70
2023-02-11T21:36:45.541Z,72.20
2023-02-11T21:39:13.943Z,68.00
2023-02-11T21:41:42.212Z,71.70
2023-02-11T21:44:10.398Z,63.50
2023-02-11T21:46:38.505Z,65.30
2023-02-11T21:49:06.559Z,63.60
2023-02-11T21:51:34.654Z,65.60
2023-02-11T21:54:04.015Z,62.50
2023-02-11T21:56:34.324Z,64.50
2023-02-11T21:59:02.782Z,68.70
2023-02-11T22:01:35.435Z,59.40
2023-02-11T22:04:03.808Z,63.00
2023-02-11T22:06:34.219Z,62.90
2023-02-11T22:09:06.707Z,62.60
2023-02-11T22:11:35.811Z,62.00
2023-02-11T22:14:04.116Z,58.70
2023-02-11T22:16:32.505Z,62.30
2023-02-11T22:19:02.623Z,62.20
2023-02-11T22:21:30.781Z,64.00
2023-02-11T22:23:59.048Z,66.40
2023-02-11T22:26:28.153Z,63.30
2023-02-11T22:28:56.947Z,61.50
2023-02-11T22:31:28.926Z,62.20
2023-02-11T22:33:57.958Z,68.10
2023-02-11T22:36:29.389Z,61.30
2023-02-11T22:39:01.832Z,62.00
2023-02-11T22:41:30.019Z,65.10
2023-02-11T22:43:58.388Z,63.10
2023-02-11T22:46:26.596Z,62.10
2023-02-11T22:48:55.159Z,63.90
2023-02-11T22:51:26.298Z,63.90
2023-02-11T22:53:59.507Z,64.70
2023-02-11T22:56:28.699Z,63.20
2023-02-11T22:58:59.119Z,70.90
2023-02-11T23:01:28.365Z,74.80
2023-02-11T23:03:58.645Z,68.80
2023-02-11T23:06:26.827Z,71.70
2023-02-11T23:08:55.720Z,76.30
2023-02-11T23:11:27.431Z,75.50
2023-02-11T23:13:56.280Z,76.70
2023-02-11T23:16:28.033Z,77.10
2023-02-11T23:18:58.601Z,73.50
2023-02-11T23:21:29.871Z,77.00
2023-02-11T23:24:00.516Z,76.70
2023-02-11T23:26:29.651Z,80.90
2023-02-11T23:28:59.371Z,80.80
2023-02-11T23:31:31.014Z,81.60
2023-02-11T23:33:59.301Z,78.30
2023-02-11T23:36:27.851Z,78.50
2023-02-11T23:38:55.970Z,74.20
2023-02-11T23:41:24.979Z,81.40
2023-02-11T23:43:55.162Z,85.50
2023-02-11T23:46:24.859Z,78.60
2023-02-11T23:48:53.400Z,83.40
2023-02-11T23:51:22.748Z,84.10
2023-02-11T23:53:52.735Z,81.40
2023-02-11T23:56:24.000Z,82.80
2023-02-11T23:58:54.379Z,86.20
